RYR6AV EGPH-EKCH
Flight info
| Callsign | RYR6AV |
|---|---|
| Flight time | N/A |
| Altitude | 37000 |
| Route | TLA Y96 HAVEN DCT OTBUN DCT ERLOT DCT GIVEM DCT SURAT DCT PETIL DCT TESPI |
| Aircraft | B38M/M-SDE1FGHILORVWXY/HB1 |
Departure
| Time | N/A |
|---|---|
| Airport | Edinburgh Airport (EGPH) |
Arrival
| Time | 2026-05-05 09:16 |
|---|---|
| Airport | Copenhagen Kastrup Airport (EKCH) |
| Time | Latitude | Longitude | Altitude | Speed | Heading |
|---|---|---|---|---|---|
| 2026-05-05 08:41 | 55.95285 | 7.06732 | 37002 ft | 485 kts | 91° |
| 2026-05-05 08:41 | 55.95273 | 7.12757 | 37001 ft | 485 kts | 91° |
| 2026-05-05 08:42 | 55.95241 | 7.24796 | 37004 ft | 485 kts | 91° |
| 2026-05-05 08:42 | 55.95197 | 7.36824 | 37003 ft | 485 kts | 91° |
| 2026-05-05 08:43 | 55.95141 | 7.48853 | 37004 ft | 485 kts | 91° |
| 2026-05-05 08:43 | 55.95075 | 7.60886 | 37005 ft | 485 kts | 91° |
| 2026-05-05 08:44 | 55.94996 | 7.72831 | 37002 ft | 484 kts | 91° |
| 2026-05-05 08:44 | 55.94905 | 7.84858 | 37001 ft | 484 kts | 91° |
| 2026-05-05 08:45 | 55.94803 | 7.96880 | 36996 ft | 484 kts | 92° |
| 2026-05-05 08:45 | 55.94689 | 8.08890 | 36996 ft | 484 kts | 92° |
| 2026-05-05 08:46 | 55.94563 | 8.20907 | 36991 ft | 484 kts | 92° |
| 2026-05-05 08:46 | 55.94427 | 8.32827 | 36992 ft | 484 kts | 92° |
| 2026-05-05 08:47 | 55.94278 | 8.44829 | 36986 ft | 484 kts | 92° |
| 2026-05-05 08:47 | 55.94117 | 8.56846 | 36981 ft | 484 kts | 92° |
| 2026-05-05 08:48 | 55.93945 | 8.68843 | 36980 ft | 484 kts | 92° |
| 2026-05-05 08:48 | 55.93761 | 8.80861 | 36981 ft | 484 kts | 93° |
| 2026-05-05 08:49 | 55.93565 | 8.92872 | 36982 ft | 484 kts | 93° |
| 2026-05-05 08:49 | 55.93357 | 9.04897 | 36984 ft | 485 kts | 93° |
| 2026-05-05 08:49 | 55.93250 | 9.10893 | 36842 ft | 480 kts | 93° |
| 2026-05-05 08:50 | 55.93140 | 9.16823 | 36191 ft | 479 kts | 93° |
| 2026-05-05 08:50 | 55.93028 | 9.22763 | 35514 ft | 480 kts | 93° |
| 2026-05-05 08:50 | 55.92912 | 9.28694 | 35012 ft | 476 kts | 93° |
| 2026-05-05 08:50 | 55.92795 | 9.34583 | 34562 ft | 472 kts | 93° |
| 2026-05-05 08:51 | 55.92676 | 9.40402 | 34056 ft | 469 kts | 93° |
| 2026-05-05 08:51 | 55.92557 | 9.46127 | 33481 ft | 467 kts | 93° |
| 2026-05-05 08:51 | 55.92433 | 9.51895 | 32933 ft | 464 kts | 94° |
| 2026-05-05 08:51 | 55.92308 | 9.57616 | 32446 ft | 460 kts | 94° |
| 2026-05-05 08:52 | 55.92182 | 9.63302 | 31959 ft | 456 kts | 94° |
| 2026-05-05 08:52 | 55.92054 | 9.68951 | 31466 ft | 453 kts | 94° |
| 2026-05-05 08:52 | 55.91924 | 9.74548 | 30970 ft | 451 kts | 94° |
| 2026-05-05 08:52 | 55.91792 | 9.80103 | 30495 ft | 448 kts | 94° |
| 2026-05-05 08:53 | 55.91659 | 9.85645 | 30007 ft | 446 kts | 94° |
| 2026-05-05 08:53 | 55.91524 | 9.91145 | 29458 ft | 443 kts | 94° |
| 2026-05-05 08:53 | 55.91387 | 9.96620 | 28977 ft | 440 kts | 94° |
| 2026-05-05 08:53 | 55.91251 | 10.02035 | 28523 ft | 436 kts | 94° |
| 2026-05-05 08:54 | 55.91114 | 10.07405 | 28066 ft | 432 kts | 94° |
| 2026-05-05 08:54 | 55.90975 | 10.12738 | 27616 ft | 429 kts | 95° |
| 2026-05-05 08:54 | 55.90838 | 10.17955 | 27183 ft | 425 kts | 95° |
| 2026-05-05 08:54 | 55.90697 | 10.23211 | 26749 ft | 422 kts | 95° |
| 2026-05-05 08:55 | 55.90556 | 10.28420 | 26312 ft | 420 kts | 95° |
| 2026-05-05 08:55 | 55.90413 | 10.33601 | 25885 ft | 417 kts | 95° |
| 2026-05-05 08:55 | 55.90270 | 10.38745 | 25467 ft | 414 kts | 95° |
| 2026-05-05 08:55 | 55.90125 | 10.43857 | 25045 ft | 412 kts | 95° |
| 2026-05-05 08:56 | 55.89979 | 10.48947 | 24636 ft | 410 kts | 95° |
| 2026-05-05 08:56 | 55.89761 | 10.53984 | 24367 ft | 401 kts | 103° |
| 2026-05-05 08:56 | 55.89172 | 10.58808 | 23988 ft | 398 kts | 105° |
| 2026-05-05 08:56 | 55.88572 | 10.63640 | 23413 ft | 402 kts | 105° |
| 2026-05-05 08:57 | 55.87975 | 10.68507 | 22918 ft | 401 kts | 105° |
| 2026-05-05 08:57 | 55.87385 | 10.73340 | 22512 ft | 398 kts | 105° |
| 2026-05-05 08:57 | 55.86807 | 10.78068 | 22129 ft | 395 kts | 105° |
| 2026-05-05 08:57 | 55.86223 | 10.82828 | 21732 ft | 392 kts | 105° |
| 2026-05-05 08:58 | 55.85642 | 10.87544 | 21338 ft | 389 kts | 105° |
| 2026-05-05 08:58 | 55.85061 | 10.92231 | 20938 ft | 386 kts | 107° |
| 2026-05-05 08:58 | 55.84385 | 10.96847 | 20478 ft | 385 kts | 108° |
| 2026-05-05 08:58 | 55.83703 | 11.01455 | 20110 ft | 383 kts | 108° |
| 2026-05-05 08:59 | 55.83032 | 11.06017 | 19740 ft | 381 kts | 108° |
| 2026-05-05 08:59 | 55.82365 | 11.10557 | 19360 ft | 379 kts | 108° |
| 2026-05-05 08:59 | 55.81700 | 11.15075 | 18979 ft | 377 kts | 108° |
| 2026-05-05 08:59 | 55.81034 | 11.19585 | 18599 ft | 376 kts | 108° |
| 2026-05-05 09:00 | 55.80371 | 11.24063 | 18208 ft | 374 kts | 108° |
| 2026-05-05 09:00 | 55.79708 | 11.28537 | 17775 ft | 373 kts | 108° |
| 2026-05-05 09:00 | 55.79047 | 11.32975 | 17386 ft | 370 kts | 108° |
| 2026-05-05 09:00 | 55.78398 | 11.37326 | 17013 ft | 368 kts | 108° |
| 2026-05-05 09:01 | 55.77744 | 11.41703 | 16640 ft | 365 kts | 108° |
| 2026-05-05 09:01 | 55.77256 | 11.46127 | 16210 ft | 367 kts | 97° |
| 2026-05-05 09:01 | 55.77027 | 11.50630 | 15851 ft | 365 kts | 97° |
| 2026-05-05 09:01 | 55.76786 | 11.55094 | 15492 ft | 362 kts | 97° |
| 2026-05-05 09:02 | 55.76539 | 11.59543 | 15126 ft | 360 kts | 98° |
| 2026-05-05 09:02 | 55.76291 | 11.63952 | 14753 ft | 359 kts | 98° |
| 2026-05-05 09:02 | 55.76042 | 11.68354 | 14385 ft | 355 kts | 98° |
| 2026-05-05 09:02 | 55.75795 | 11.72672 | 14024 ft | 348 kts | 98° |
| 2026-05-05 09:03 | 55.75551 | 11.76919 | 13653 ft | 342 kts | 98° |
| 2026-05-05 09:03 | 55.75310 | 11.81081 | 13266 ft | 336 kts | 98° |
| 2026-05-05 09:03 | 55.75073 | 11.85161 | 12914 ft | 329 kts | 98° |
| 2026-05-05 09:03 | 55.74838 | 11.89166 | 12496 ft | 324 kts | 98° |
| 2026-05-05 09:04 | 55.74605 | 11.93117 | 12139 ft | 320 kts | 98° |
| 2026-05-05 09:04 | 55.74375 | 11.97013 | 11783 ft | 322 kts | 98° |
| 2026-05-05 09:04 | 55.74145 | 12.00875 | 11408 ft | 324 kts | 98° |
| 2026-05-05 09:04 | 55.73907 | 12.04853 | 11010 ft | 325 kts | 98° |
| 2026-05-05 09:05 | 55.73666 | 12.08852 | 10611 ft | 326 kts | 97° |
| 2026-05-05 09:05 | 55.73423 | 12.12868 | 10173 ft | 329 kts | 97° |
| 2026-05-05 09:05 | 55.73177 | 12.16911 | 9758 ft | 330 kts | 97° |
| 2026-05-05 09:05 | 55.72932 | 12.20945 | 9319 ft | 326 kts | 96° |
| 2026-05-05 09:06 | 55.73110 | 12.24885 | 8710 ft | 326 kts | 71° |
| 2026-05-05 09:06 | 55.73940 | 12.28610 | 8079 ft | 323 kts | 68° |
| 2026-05-05 09:06 | 55.74733 | 12.32318 | 7562 ft | 318 kts | 68° |
| 2026-05-05 09:06 | 55.75491 | 12.35940 | 7207 ft | 307 kts | 69° |
| 2026-05-05 09:07 | 55.76214 | 12.39430 | 6917 ft | 295 kts | 69° |
| 2026-05-05 09:07 | 55.76904 | 12.42786 | 6632 ft | 285 kts | 69° |
| 2026-05-05 09:07 | 55.77570 | 12.46040 | 6346 ft | 277 kts | 69° |
| 2026-05-05 09:07 | 55.78215 | 12.49211 | 6070 ft | 275 kts | 69° |
| 2026-05-05 09:08 | 55.78862 | 12.52399 | 5788 ft | 273 kts | 69° |
| 2026-05-05 09:08 | 55.79502 | 12.55559 | 5506 ft | 270 kts | 69° |
| 2026-05-05 09:08 | 55.80131 | 12.58667 | 5239 ft | 263 kts | 69° |
| 2026-05-05 09:08 | 55.80744 | 12.61704 | 5013 ft | 260 kts | 69° |
| 2026-05-05 09:09 | 55.81226 | 12.64777 | 4708 ft | 260 kts | 84° |
| 2026-05-05 09:09 | 55.81175 | 12.67951 | 4433 ft | 251 kts | 94° |
| 2026-05-05 09:09 | 55.81013 | 12.70985 | 4274 ft | 244 kts | 95° |
| 2026-05-05 09:09 | 55.80842 | 12.73977 | 4142 ft | 242 kts | 95° |
| 2026-05-05 09:10 | 55.80672 | 12.76947 | 3888 ft | 241 kts | 95° |
| 2026-05-05 09:10 | 55.80498 | 12.79893 | 3618 ft | 239 kts | 95° |
| 2026-05-05 09:10 | 55.80320 | 12.82821 | 3355 ft | 237 kts | 95° |
| 2026-05-05 09:10 | 55.79924 | 12.85640 | 3111 ft | 237 kts | 117° |
| 2026-05-05 09:11 | 55.78823 | 12.87694 | 2949 ft | 234 kts | 150° |
| 2026-05-05 09:11 | 55.77272 | 12.88407 | 2961 ft | 232 kts | 183° |
| 2026-05-05 09:11 | 55.75680 | 12.87974 | 3000 ft | 232 kts | 194° |
| 2026-05-05 09:11 | 55.74203 | 12.87003 | 2981 ft | 219 kts | 217° |
| 2026-05-05 09:12 | 55.73276 | 12.85103 | 2988 ft | 196 kts | 244° |
| 2026-05-05 09:12 | 55.72638 | 12.83031 | 2806 ft | 189 kts | 239° |
| 2026-05-05 09:12 | 55.71822 | 12.81219 | 2556 ft | 184 kts | 229° |
| 2026-05-05 09:12 | 55.70923 | 12.79753 | 2305 ft | 168 kts | 224° |
| 2026-05-05 09:13 | 55.70049 | 12.78414 | 2067 ft | 165 kts | 224° |
| 2026-05-05 09:13 | 55.69186 | 12.77075 | 1871 ft | 165 kts | 224° |
| 2026-05-05 09:13 | 55.68324 | 12.75733 | 1643 ft | 163 kts | 224° |
| 2026-05-05 09:13 | 55.67501 | 12.74457 | 1398 ft | 153 kts | 224° |
| 2026-05-05 09:14 | 55.66713 | 12.73232 | 1167 ft | 149 kts | 224° |
| 2026-05-05 09:14 | 55.65939 | 12.72028 | 962 ft | 148 kts | 224° |
| 2026-05-05 09:14 | 55.65159 | 12.70816 | 745 ft | 150 kts | 224° |
| 2026-05-05 09:14 | 55.64370 | 12.69593 | 539 ft | 151 kts | 225° |
| 2026-05-05 09:15 | 55.63584 | 12.68363 | 326 ft | 152 kts | 224° |
| 2026-05-05 09:15 | 55.62790 | 12.67137 | 123 ft | 155 kts | 223° |
| 2026-05-05 09:15 | 55.61999 | 12.65914 | 27 ft | 138 kts | 220° |
| 2026-05-05 09:15 | 55.61452 | 12.65066 | 30 ft | 65 kts | 221° |
| 2026-05-05 09:16 | 55.61251 | 12.64590 | 27 ft | 29 kts | 251° |
| 2026-05-05 09:16 | 55.61195 | 12.64294 | 26 ft | 18 kts | 253° |
| 2026-05-05 09:16 | 55.61248 | 12.64111 | 26 ft | 19 kts | 341° |
| 2026-05-05 09:16 | 55.61347 | 12.64183 | 26 ft | 17 kts | 34° |
| 2026-05-05 09:17 | 55.61449 | 12.64304 | 28 ft | 18 kts | 33° |
| 2026-05-05 09:17 | 55.61562 | 12.64433 | 26 ft | 20 kts | 33° |
| 2026-05-05 09:17 | 55.61688 | 12.64578 | 28 ft | 23 kts | 33° |
| 2026-05-05 09:17 | 55.61833 | 12.64745 | 28 ft | 26 kts | 32° |
| 2026-05-05 09:18 | 55.61996 | 12.64931 | 27 ft | 29 kts | 33° |
| 2026-05-05 09:18 | 55.62155 | 12.65116 | 26 ft | 24 kts | 33° |
| 2026-05-05 09:18 | 55.62275 | 12.65198 | 26 ft | 18 kts | 0° |
| 2026-05-05 09:18 | 55.62401 | 12.65202 | 27 ft | 14 kts | 4° |
| 2026-05-05 09:19 | 55.62441 | 12.65337 | 26 ft | 15 kts | 88° |
| 2026-05-05 09:19 | 55.62444 | 12.65491 | 26 ft | 7 kts | 74° |
| 2026-05-05 09:19 | 55.62486 | 12.65547 | 26 ft | 9 kts | 23° |
| 2026-05-05 09:19 | 55.62517 | 12.65570 | 26 ft | 2 kts | 23° |
| 2026-05-05 09:20 | 55.62518 | 12.65571 | 26 ft | 0 kts | 23° |